General Aviation Weather

Text Reports

Enter one or more of the following location identifiers separated by a space:

Zip Code, Four-Character ICAO or Three-Character IATA airport codes.

METAR - Aviation Routine Weather Report
KPHP - Philip, South Dakota
Updated at 12:55 PM GMT on December 29, 2014 (5:55 AM MST):
METAR KPHP 291255Z AUTO 02012KT 6SM -SN OVC050 M14/M17 A3046 RMK AO2 SLP354 P0000 T11441172
TAF - Terminal Area Forecast
KPHP - Philip, South Dakota
Updated at 12:55 PM GMT on December 29, 2014 (5:55 AM MST):
No TAF is currently available for this location.
Decoded:
No decoded TAF is available.
PIREP - Pilot Weather Report
KPHP - Philip, South Dakota
Updated at 12:55 PM GMT on December 29, 2014 (5:55 AM MST):
No PIREP is currently available for this location.
AIRMET - Airmens Meteorological Information
KPHP - Philip, South Dakota
Updated at 12:55 PM GMT on December 29, 2014 (5:55 AM MST):
No AIRMET is currently available for this location.
SIGMET - Significant Meteorological Information
KPHP - Philip, South Dakota
Updated at 12:55 PM GMT on December 29, 2014 (5:55 AM MST):
No SIGMET is currently available for this location.
NOTAM - Notice to Airmen
KPHP - Philip, South Dakota
Updated at 12:55 PM GMT on December 29, 2014 (5:55 AM MST):
No NOTAM is currently available for this location.
Forecast Area
KPHP - Philip, South Dakota
Updated at 12:55 PM GMT on December 29, 2014 (5:55 AM MST):
No NOTAM is currently available for this location.
Aviation Weather Maps